createdAt,value
2022-09-01T00:01:49.685Z,19.15
2022-09-01T00:04:21.292Z,19.20
2022-09-01T00:06:49.145Z,19.14
2022-09-01T00:09:18.926Z,19.01
2022-09-01T00:11:50.707Z,18.86
2022-09-01T00:14:29.934Z,18.41
2022-09-01T00:17:02.712Z,19.19
2022-09-01T00:19:29.844Z,19.02
2022-09-01T00:21:57.240Z,19.33
2022-09-01T00:24:26.416Z,19.37
2022-09-01T00:26:55.036Z,18.77
2022-09-01T00:29:22.302Z,17.88
2022-09-01T00:31:50.339Z,17.53
2022-09-01T00:34:17.706Z,17.74
2022-09-01T00:36:44.983Z,17.66
2022-09-01T00:39:14.128Z,17.93
2022-09-01T00:41:43.047Z,17.89
2022-09-01T00:44:13.591Z,18.25
2022-09-01T00:46:49.673Z,18.54
2022-09-01T00:49:37.238Z,18.49
2022-09-01T00:52:44.175Z,18.05
2022-09-01T00:55:17.790Z,18.49
2022-09-01T00:57:45.879Z,18.72
2022-09-01T01:00:23.589Z,18.95
2022-09-01T01:02:56.334Z,19.08
2022-09-01T01:05:28.128Z,18.59
2022-09-01T01:07:56.081Z,18.58
2022-09-01T01:10:24.426Z,17.92
2022-09-01T01:12:51.843Z,18.28
2022-09-01T01:15:19.489Z,17.79
2022-09-01T01:17:46.291Z,18.11
2022-09-01T01:20:36.160Z,18.05
2022-09-01T01:23:21.019Z,18.58
2022-09-01T01:25:56.096Z,18.66
2022-09-01T01:28:44.441Z,18.34
2022-09-01T01:31:19.586Z,17.88
2022-09-01T01:33:58.094Z,18.35
2022-09-01T01:36:32.658Z,17.65
2022-09-01T01:39:03.973Z,17.87
2022-09-01T01:41:33.597Z,17.40
2022-09-01T01:44:04.529Z,17.16
2022-09-01T01:46:33.908Z,17.65
2022-09-01T01:49:02.566Z,17.59
2022-09-01T01:51:32.047Z,17.38
2022-09-01T01:54:01.965Z,17.13
2022-09-01T01:56:28.815Z,18.02
2022-09-01T01:58:59.045Z,17.95
2022-09-01T02:01:29.417Z,17.77
2022-09-01T02:03:57.858Z,18.13
2022-09-01T02:06:28.273Z,17.51
2022-09-01T02:08:58.212Z,17.92
2022-09-01T02:11:26.417Z,17.21
2022-09-01T02:13:57.610Z,17.92
2022-09-01T02:16:27.380Z,17.57
2022-09-01T02:18:54.136Z,17.74
2022-09-01T02:21:23.890Z,17.75
2022-09-01T02:23:59.705Z,17.51
2022-09-01T02:26:34.233Z,17.93
2022-09-01T02:29:04.905Z,17.46
2022-09-01T02:31:35.535Z,17.96
2022-09-01T02:34:03.952Z,17.95
2022-09-01T02:36:33.014Z,17.30
2022-09-01T02:38:59.858Z,17.35
2022-09-01T02:41:29.380Z,16.88
2022-09-01T02:43:57.129Z,17.34
2022-09-01T02:46:24.623Z,17.04
2022-09-01T02:48:52.470Z,17.55
2022-09-01T02:51:22.709Z,17.85
2022-09-01T02:53:52.996Z,17.24
2022-09-01T02:56:23.911Z,17.24
2022-09-01T02:58:53.488Z,17.15
2022-09-01T03:01:26.482Z,17.47
2022-09-01T03:03:56.383Z,17.23
2022-09-01T03:06:24.721Z,17.62
2022-09-01T03:08:59.112Z,17.48
2022-09-01T03:11:27.459Z,18.00
2022-09-01T03:13:54.178Z,18.23
2022-09-01T03:16:22.618Z,18.22
2022-09-01T03:18:50.770Z,17.98
2022-09-01T03:21:18.342Z,18.12
2022-09-01T03:23:47.122Z,18.37
2022-09-01T03:26:15.134Z,18.51
2022-09-01T03:28:42.033Z,18.36
2022-09-01T03:31:09.185Z,18.33
2022-09-01T03:33:36.970Z,18.44
2022-09-01T03:36:05.382Z,18.16
2022-09-01T03:38:44.245Z,18.44
2022-09-01T03:41:13.475Z,18.23
2022-09-01T03:43:45.893Z,18.43
2022-09-01T03:46:22.006Z,18.56
2022-09-01T03:48:52.088Z,18.36
2022-09-01T03:51:23.064Z,17.62
2022-09-01T03:53:54.613Z,16.98
2022-09-01T03:56:24.800Z,16.99
2022-09-01T03:58:52.253Z,16.91
2022-09-01T04:01:19.995Z,17.05
2022-09-01T04:03:49.552Z,16.68
2022-09-01T04:06:19.559Z,17.14
2022-09-01T04:08:47.364Z,17.54
2022-09-01T04:11:18.971Z,17.42
2022-09-01T04:13:47.471Z,17.75
2022-09-01T04:16:39.518Z,17.86
2022-09-01T04:19:16.208Z,17.85
2022-09-01T04:21:54.481Z,17.78
2022-09-01T04:24:24.328Z,17.60
2022-09-01T04:26:52.912Z,17.74
2022-09-01T04:29:27.759Z,18.11
2022-09-01T04:32:02.704Z,18.38
2022-09-01T04:34:37.362Z,17.80
2022-09-01T04:37:13.395Z,17.56
2022-09-01T04:39:52.467Z,18.34
2022-09-01T04:42:23.700Z,18.31
2022-09-01T04:44:54.759Z,18.28
2022-09-01T04:47:31.604Z,18.19
2022-09-01T04:50:06.080Z,18.50
2022-09-01T04:52:32.759Z,18.37
2022-09-01T04:54:59.700Z,18.75
2022-09-01T04:57:27.829Z,19.04
2022-09-01T04:59:57.266Z,19.12
2022-09-01T05:02:27.335Z,19.07
2022-09-01T05:04:54.435Z,19.34
2022-09-01T05:07:21.642Z,19.32
2022-09-01T05:09:48.462Z,19.05
2022-09-01T05:12:16.708Z,19.30
2022-09-01T05:14:48.889Z,19.51
2022-09-01T05:17:21.983Z,19.10
2022-09-01T05:19:51.286Z,19.31
2022-09-01T05:22:23.180Z,19.33
2022-09-01T05:24:55.434Z,19.58
2022-09-01T05:27:23.028Z,19.30
2022-09-01T05:29:50.603Z,19.58
2022-09-01T05:32:17.630Z,19.61
2022-09-01T05:34:45.267Z,19.59
2022-09-01T05:37:14.699Z,19.28
2022-09-01T05:39:41.768Z,19.58
2022-09-01T05:42:08.726Z,19.81
2022-09-01T05:44:45.093Z,19.77
2022-09-01T05:47:14.758Z,19.81
2022-09-01T05:49:48.057Z,19.64
2022-09-01T05:52:14.827Z,19.88
2022-09-01T05:54:41.616Z,20.09
2022-09-01T05:57:30.740Z,20.11
2022-09-01T05:59:55.197Z,20.26
2022-09-01T06:02:24.269Z,20.32
2022-09-01T06:04:52.996Z,20.29
2022-09-01T06:07:25.249Z,20.23
2022-09-01T06:09:53.916Z,20.24
2022-09-01T06:12:24.050Z,20.45
2022-09-01T06:14:54.277Z,20.33
2022-09-01T06:17:25.107Z,20.34
2022-09-01T06:19:59.492Z,20.54
2022-09-01T06:22:31.201Z,20.55
2022-09-01T06:25:03.242Z,20.65
2022-09-01T06:27:31.314Z,20.55
2022-09-01T06:29:58.519Z,20.66
2022-09-01T06:32:27.251Z,20.73
2022-09-01T06:34:54.346Z,20.95
2022-09-01T06:37:22.845Z,20.86
2022-09-01T06:39:51.890Z,20.67
2022-09-01T06:42:19.710Z,20.73
2022-09-01T06:44:46.649Z,20.80
2022-09-01T06:47:15.728Z,20.90
2022-09-01T06:49:42.778Z,20.87
2022-09-01T06:52:11.988Z,20.81
2022-09-01T06:54:39.786Z,20.93
2022-09-01T06:59:54.489Z,20.87
2022-09-01T07:02:26.564Z,20.57
2022-09-01T07:04:54.590Z,20.47
2022-09-01T07:10:21.052Z,20.60
2022-09-01T07:13:06.000Z,20.45
2022-09-01T07:16:31.950Z,19.69
2022-09-01T07:18:22.850Z,20.49
2022-09-01T07:21:35.888Z,20.79
2022-09-01T07:24:07.888Z,20.76
2022-09-01T07:26:27.180Z,20.95
2022-09-01T07:29:01.686Z,21.12
2022-09-01T07:39:55.433Z,21.22
2022-09-01T07:45:28.348Z,21.06
2022-09-01T07:47:57.455Z,21.17
2022-09-01T07:53:25.436Z,21.22
2022-09-01T07:55:54.618Z,21.41
2022-09-01T07:58:25.287Z,21.48
2022-09-01T08:00:53.537Z,21.46
2022-09-01T08:03:23.831Z,21.41
2022-09-01T08:05:55.771Z,21.54
2022-09-01T08:08:26.374Z,21.42
2022-09-01T08:11:04.411Z,20.95
2022-09-01T08:13:34.653Z,21.19
2022-09-01T08:16:08.350Z,21.18
2022-09-01T08:18:51.029Z,21.18
2022-09-01T08:21:22.255Z,21.54
2022-09-01T08:23:50.873Z,21.74
2022-09-01T08:26:19.576Z,21.55
2022-09-01T08:28:54.334Z,21.76
2022-09-01T08:31:22.976Z,21.75
2022-09-01T08:33:51.053Z,21.93
2022-09-01T08:36:23.686Z,21.87
2022-09-01T08:38:53.216Z,21.50
2022-09-01T08:41:47.362Z,21.99
2022-09-01T08:44:39.167Z,21.83
2022-09-01T08:47:12.876Z,22.15
2022-09-01T08:49:46.400Z,21.71
2022-09-01T08:52:34.256Z,22.29
2022-09-01T08:55:31.867Z,22.35
2022-09-01T08:58:00.998Z,22.40
2022-09-01T09:00:30.825Z,22.08
2022-09-01T09:03:19.074Z,22.61
2022-09-01T09:06:13.756Z,22.32
2022-09-01T09:08:49.375Z,22.48
2022-09-01T09:11:22.318Z,22.33
2022-09-01T09:14:01.168Z,22.58
2022-09-01T09:16:36.008Z,22.38
2022-09-01T09:19:12.907Z,22.74
2022-09-01T09:21:45.529Z,22.37
2022-09-01T09:24:52.946Z,22.87
2022-09-01T09:27:26.871Z,22.92
2022-09-01T09:30:08.331Z,23.57
2022-09-01T09:33:37.288Z,23.63
2022-09-01T09:35:47.549Z,23.43
2022-09-01T09:38:24.346Z,24.07
2022-09-01T09:44:01.295Z,23.69
2022-09-01T09:46:36.952Z,24.03
2022-09-01T09:49:36.593Z,23.66
2022-09-01T09:52:10.651Z,23.48
2022-09-01T09:54:59.706Z,22.65
2022-09-01T09:57:26.802Z,23.09
2022-09-01T10:00:00.624Z,22.05
2022-09-01T10:02:37.535Z,22.94
2022-09-01T10:05:30.149Z,22.58
2022-09-01T10:07:58.465Z,22.74
2022-09-01T10:10:58.186Z,22.77
2022-09-01T10:13:33.578Z,22.28
2022-09-01T10:16:05.578Z,23.17
2022-09-01T10:18:45.093Z,22.73
2022-09-01T10:21:24.306Z,23.40
2022-09-01T10:23:51.189Z,23.39
2022-09-01T10:26:25.291Z,23.91
2022-09-01T10:29:01.076Z,23.67
2022-09-01T10:31:32.434Z,24.21
2022-09-01T10:34:05.704Z,24.46
2022-09-01T10:36:35.974Z,24.68
2022-09-01T10:39:08.792Z,24.43
2022-09-01T10:42:00.029Z,24.61
2022-09-01T10:44:36.374Z,24.09
2022-09-01T10:47:24.681Z,23.67
2022-09-01T10:49:51.604Z,24.14
2022-09-01T10:52:43.761Z,23.16
2022-09-01T10:55:41.957Z,23.63
2022-09-01T11:01:39.630Z,22.84
2022-09-01T11:04:03.459Z,23.54
2022-09-01T11:09:45.423Z,22.58
2022-09-01T11:12:30.269Z,22.92
2022-09-01T11:15:06.974Z,22.53
2022-09-01T11:17:38.018Z,22.00
2022-09-01T11:20:25.331Z,22.50
2022-09-01T11:23:28.042Z,22.26
2022-09-01T11:26:21.193Z,23.22
2022-09-01T11:28:49.010Z,23.60
2022-09-01T11:31:32.725Z,22.97
2022-09-01T11:34:04.063Z,22.21
2022-09-01T11:36:35.593Z,23.21
2022-09-01T11:39:19.198Z,23.02
2022-09-01T11:42:09.183Z,23.29
2022-09-01T11:45:06.573Z,23.51
2022-09-01T11:47:40.643Z,22.74
2022-09-01T11:50:17.223Z,22.06
2022-09-01T11:53:04.755Z,22.73
2022-09-01T11:55:38.184Z,23.34
2022-09-01T11:58:05.826Z,23.75
2022-09-01T12:00:38.649Z,23.68
2022-09-01T12:03:23.992Z,23.15
2022-09-01T12:06:04.279Z,23.08
2022-09-01T12:08:34.953Z,23.39
2022-09-01T12:11:07.911Z,23.21
2022-09-01T12:13:35.721Z,23.27
2022-09-01T12:16:17.985Z,23.17
2022-09-01T12:18:49.135Z,23.77
2022-09-01T12:21:43.837Z,23.60
2022-09-01T12:24:23.294Z,23.42
2022-09-01T12:26:59.206Z,23.16
2022-09-01T12:29:28.880Z,23.09
2022-09-01T12:32:00.624Z,23.22
2022-09-01T12:34:33.514Z,23.67
2022-09-01T12:37:09.503Z,24.12
2022-09-01T12:39:42.639Z,24.14
2022-09-01T12:42:21.896Z,23.55
2022-09-01T12:44:53.908Z,24.69
2022-09-01T12:47:50.421Z,24.87
2022-09-01T12:50:17.631Z,24.57
2022-09-01T12:53:14.032Z,24.94
2022-09-01T12:55:48.305Z,25.22
2022-09-01T12:58:25.855Z,25.95
2022-09-01T13:00:59.673Z,25.28
2022-09-01T13:03:29.627Z,25.34
2022-09-01T13:05:59.949Z,25.70
2022-09-01T13:08:36.014Z,26.43
2022-09-01T13:11:08.262Z,24.91
2022-09-01T13:13:46.907Z,26.09
2022-09-01T13:16:15.550Z,26.16
2022-09-01T13:21:31.315Z,25.89
2022-09-01T13:23:58.808Z,25.11
2022-09-01T13:26:26.513Z,24.99
2022-09-01T13:28:53.964Z,25.03
2022-09-01T13:31:29.220Z,24.75
2022-09-01T13:34:23.095Z,24.33
2022-09-01T13:36:47.349Z,24.76
2022-09-01T13:39:17.137Z,25.30
2022-09-01T13:41:47.347Z,24.52
2022-09-01T13:44:14.635Z,24.82
2022-09-01T13:50:05.452Z,24.36
2022-09-01T13:52:15.713Z,24.88
2022-09-01T13:54:44.598Z,25.10
2022-09-01T13:57:11.943Z,24.52
2022-09-01T13:59:39.293Z,24.21
2022-09-01T14:02:06.425Z,23.35
2022-09-01T14:04:33.281Z,23.45
2022-09-01T14:07:00.233Z,23.47
2022-09-01T14:09:27.197Z,23.77
2022-09-01T14:11:55.803Z,23.99
2022-09-01T14:14:23.155Z,24.18
2022-09-01T14:16:49.970Z,24.14
2022-09-01T14:19:17.033Z,23.93
2022-09-01T14:21:45.405Z,23.79
2022-09-01T14:24:13.265Z,24.00
2022-09-01T14:26:41.775Z,23.72
2022-09-01T14:29:08.676Z,24.24
2022-09-01T14:31:37.944Z,24.40
2022-09-01T14:34:06.931Z,23.92
2022-09-01T14:36:33.772Z,23.20
2022-09-01T14:39:00.850Z,23.67
2022-09-01T14:41:27.624Z,23.58
2022-09-01T14:44:02.801Z,23.31
2022-09-01T14:46:31.205Z,23.07
2022-09-01T14:48:58.062Z,22.88
2022-09-01T14:52:10.209Z,23.46
2022-09-01T14:54:16.045Z,22.92
2022-09-01T14:57:27.187Z,22.65
2022-09-01T14:59:29.622Z,23.40
2022-09-01T15:01:56.486Z,22.95
2022-09-01T15:04:23.289Z,23.19
2022-09-01T15:06:50.300Z,23.09
2022-09-01T15:09:19.146Z,22.79
2022-09-01T15:11:46.832Z,23.04
2022-09-01T15:14:13.661Z,22.70
2022-09-01T15:16:41.819Z,23.10
2022-09-01T15:19:11.101Z,22.65
2022-09-01T15:21:40.474Z,23.25
2022-09-01T15:24:08.847Z,23.45
2022-09-01T15:26:37.416Z,23.38
2022-09-01T15:29:05.055Z,23.58
2022-09-01T15:31:33.729Z,23.79
2022-09-01T15:34:03.411Z,23.12
2022-09-01T15:36:31.413Z,23.30
2022-09-01T15:38:59.076Z,23.40
2022-09-01T15:41:28.792Z,23.69
2022-09-01T15:43:56.887Z,22.69
2022-09-01T15:46:32.110Z,23.38
2022-09-01T15:49:00.702Z,23.65
2022-09-01T15:51:37.589Z,23.63
2022-09-01T15:54:16.554Z,23.68
2022-09-01T15:56:43.621Z,23.76
2022-09-01T15:59:11.791Z,23.78
2022-09-01T16:01:42.904Z,24.06
2022-09-01T16:04:17.796Z,23.94
2022-09-01T16:06:46.374Z,23.92
2022-09-01T16:09:13.877Z,23.94
2022-09-01T16:11:43.542Z,23.79
2022-09-01T16:14:10.649Z,24.32
2022-09-01T16:17:09.599Z,24.33
2022-09-01T16:19:51.956Z,24.31
2022-09-01T16:22:28.349Z,24.58
2022-09-01T16:25:01.024Z,24.78
2022-09-01T16:27:44.472Z,24.69
2022-09-01T16:30:14.497Z,24.70
2022-09-01T16:32:45.919Z,24.46
2022-09-01T16:35:14.118Z,24.63
2022-09-01T16:37:58.364Z,24.58
2022-09-01T16:40:39.730Z,24.63
2022-09-01T16:43:15.647Z,24.56
2022-09-01T16:45:51.839Z,24.41
2022-09-01T16:48:21.362Z,24.52
2022-09-01T16:50:55.376Z,24.79
2022-09-01T16:53:48.391Z,24.75
2022-09-01T16:56:24.057Z,24.80
2022-09-01T16:59:15.058Z,24.91
2022-09-01T17:01:52.508Z,24.95
2022-09-01T17:04:19.326Z,24.91
2022-09-01T17:06:57.386Z,24.82
2022-09-01T17:09:33.754Z,24.88
2022-09-01T17:12:18.155Z,24.84
2022-09-01T17:14:59.751Z,24.76
2022-09-01T17:17:41.758Z,24.84
2022-09-01T17:20:08.986Z,24.87
2022-09-01T17:22:37.761Z,24.69
2022-09-01T17:25:13.661Z,24.88
2022-09-01T17:27:58.380Z,24.67
2022-09-01T17:30:25.562Z,24.72
2022-09-01T17:33:17.176Z,24.66
2022-09-01T17:36:10.832Z,24.69
2022-09-01T17:38:54.317Z,24.82
2022-09-01T17:42:11.694Z,24.61
2022-09-01T17:44:55.604Z,24.59
2022-09-01T17:47:26.615Z,24.50
2022-09-01T17:50:18.546Z,24.40
2022-09-01T17:53:11.133Z,24.38
2022-09-01T17:55:54.839Z,24.48
2022-09-01T17:58:59.924Z,24.44
2022-09-01T18:01:45.661Z,24.42
2022-09-01T18:04:38.769Z,24.38
2022-09-01T18:07:42.250Z,23.88
2022-09-01T18:10:17.833Z,24.24
2022-09-01T18:12:46.954Z,24.21
2022-09-01T18:15:24.504Z,23.94
2022-09-01T18:17:55.541Z,24.04
2022-09-01T18:20:31.528Z,23.80
2022-09-01T18:23:04.716Z,23.91
2022-09-01T18:25:59.934Z,23.85
2022-09-01T18:28:26.784Z,23.64
2022-09-01T18:30:59.674Z,23.66
2022-09-01T18:33:26.458Z,23.43
2022-09-01T18:36:11.515Z,23.38
2022-09-01T18:38:45.177Z,23.52
2022-09-01T18:42:05.542Z,23.52
2022-09-01T18:44:44.377Z,23.67
2022-09-01T18:47:17.363Z,23.28
2022-09-01T18:50:00.626Z,23.09
2022-09-01T18:52:33.421Z,23.02
2022-09-01T18:55:02.695Z,23.03
2022-09-01T18:57:38.375Z,23.22
2022-09-01T19:00:19.291Z,22.94
2022-09-01T19:02:59.648Z,23.06
2022-09-01T19:05:45.912Z,23.20
2022-09-01T19:08:37.880Z,22.99
2022-09-01T19:11:26.509Z,23.18
2022-09-01T19:14:11.584Z,23.17
2022-09-01T19:16:44.538Z,23.32
2022-09-01T19:19:11.644Z,23.02
2022-09-01T19:21:39.439Z,22.62
2022-09-01T19:24:13.406Z,22.59
2022-09-01T19:26:46.150Z,22.57
2022-09-01T19:29:19.579Z,22.66
2022-09-01T19:32:02.078Z,22.65
2022-09-01T19:34:46.118Z,22.63
2022-09-01T19:37:13.278Z,22.67
2022-09-01T19:39:44.767Z,22.79
2022-09-01T19:42:20.353Z,22.54
2022-09-01T19:45:24.447Z,22.75
2022-09-01T19:48:15.270Z,22.69
2022-09-01T19:51:03.563Z,22.77
2022-09-01T19:53:44.562Z,22.77
2022-09-01T19:56:15.149Z,22.79
2022-09-01T19:58:51.771Z,22.60
2022-09-01T20:01:32.680Z,22.52
2022-09-01T20:04:04.230Z,22.72
2022-09-01T20:06:35.272Z,22.70
2022-09-01T20:09:16.453Z,22.43
2022-09-01T20:12:05.795Z,22.67
2022-09-01T20:14:56.848Z,22.13
2022-09-01T20:17:29.454Z,21.57
2022-09-01T20:20:21.920Z,21.88
2022-09-01T20:23:07.454Z,22.05
2022-09-01T20:25:58.959Z,22.17
2022-09-01T20:28:31.361Z,22.19
2022-09-01T20:31:12.451Z,22.28
2022-09-01T20:33:47.149Z,22.37
2022-09-01T20:36:45.150Z,22.34
2022-09-01T20:39:47.156Z,22.50
2022-09-01T20:42:21.395Z,22.35
2022-09-01T20:44:55.444Z,22.36
2022-09-01T20:47:27.930Z,22.51
2022-09-01T20:49:57.316Z,22.48
2022-09-01T20:52:52.056Z,22.55
2022-09-01T20:55:25.177Z,22.33
2022-09-01T20:58:11.426Z,22.29
2022-09-01T21:01:17.651Z,22.37
2022-09-01T21:04:09.399Z,22.35
2022-09-01T21:06:49.156Z,22.30
2022-09-01T21:09:28.585Z,22.18
2022-09-01T21:12:17.826Z,22.30
2022-09-01T21:14:57.222Z,22.18
2022-09-01T21:17:49.763Z,22.25
2022-09-01T21:20:38.586Z,22.05
2022-09-01T21:23:06.811Z,22.09
2022-09-01T21:25:34.014Z,21.81
2022-09-01T21:28:04.591Z,21.90
2022-09-01T21:30:34.198Z,22.11
2022-09-01T21:33:01.645Z,21.91
2022-09-01T21:35:28.745Z,22.03
2022-09-01T21:37:55.517Z,21.75
2022-09-01T21:40:24.530Z,21.80
2022-09-01T21:42:54.594Z,21.39
2022-09-01T21:45:22.422Z,21.63
2022-09-01T21:47:50.910Z,21.76
2022-09-01T21:50:20.549Z,21.63
2022-09-01T21:52:47.427Z,21.59
2022-09-01T21:55:17.483Z,21.63
2022-09-01T21:57:47.725Z,21.48
2022-09-01T22:00:21.822Z,21.03
2022-09-01T22:02:48.887Z,20.85
2022-09-01T22:05:15.720Z,20.97
2022-09-01T22:07:45.606Z,21.10
2022-09-01T22:10:16.520Z,20.74
2022-09-01T22:12:45.936Z,21.05
2022-09-01T22:15:16.236Z,20.90
2022-09-01T22:17:43.327Z,20.92
2022-09-01T22:20:12.257Z,21.10
2022-09-01T22:22:39.545Z,21.10
2022-09-01T22:25:09.442Z,21.35
2022-09-01T22:27:36.324Z,21.27
2022-09-01T22:30:05.643Z,20.73
2022-09-01T22:32:36.297Z,19.85
2022-09-01T22:35:05.340Z,20.60
2022-09-01T22:37:32.142Z,20.92
2022-09-01T22:39:58.984Z,21.15
2022-09-01T22:42:25.811Z,20.95
2022-09-01T22:44:52.668Z,20.82
2022-09-01T22:47:19.492Z,21.06
2022-09-01T22:49:46.241Z,20.92
2022-09-01T22:52:13.949Z,20.89
2022-09-01T22:54:40.787Z,21.02
2022-09-01T22:57:07.671Z,21.15
2022-09-01T22:59:34.499Z,21.44
2022-09-01T23:02:02.013Z,21.52
2022-09-01T23:04:31.514Z,21.42
2022-09-01T23:06:58.338Z,21.32
2022-09-01T23:09:25.299Z,20.76
2022-09-01T23:11:52.358Z,20.55
2022-09-01T23:14:19.187Z,20.74
2022-09-01T23:16:47.310Z,20.69
2022-09-01T23:19:22.180Z,20.30
2022-09-01T23:21:49.965Z,20.83
2022-09-01T23:24:19.743Z,20.81
2022-09-01T23:26:47.539Z,20.97
2022-09-01T23:29:14.558Z,21.00
2022-09-01T23:31:41.893Z,21.11
2022-09-01T23:34:08.893Z,21.03
2022-09-01T23:36:36.868Z,21.20
2022-09-01T23:39:05.179Z,21.26
2022-09-01T23:41:34.802Z,21.03
2022-09-01T23:44:03.570Z,20.81
2022-09-01T23:46:37.273Z,21.06
2022-09-01T23:49:05.565Z,20.79
2022-09-01T23:51:32.395Z,20.98
2022-09-01T23:53:59.534Z,20.09
2022-09-01T23:56:28.504Z,20.83
2022-09-01T23:58:55.857Z,20.79
